createdAt,value
2023-03-20T00:02:02.875Z,65.79
2023-03-20T00:04:31.704Z,65.47
2023-03-20T00:07:00.293Z,65.78
2023-03-20T00:09:28.693Z,65.96
2023-03-20T00:11:57.918Z,66.03
2023-03-20T00:14:27.497Z,66.02
2023-03-20T00:16:57.379Z,66.00
2023-03-20T00:19:26.460Z,65.94
2023-03-20T00:21:56.287Z,65.43
2023-03-20T00:24:24.884Z,65.81
2023-03-20T00:26:54.295Z,65.77
2023-03-20T00:29:24.330Z,65.87
2023-03-20T00:31:53.318Z,65.75
2023-03-20T00:34:24.483Z,65.91
2023-03-20T00:36:53.055Z,65.74
2023-03-20T00:39:21.505Z,65.71
2023-03-20T00:41:51.731Z,65.79
2023-03-20T00:44:22.228Z,65.92
2023-03-20T00:46:52.291Z,65.59
2023-03-20T00:49:24.021Z,65.60
2023-03-20T00:51:52.995Z,65.25
2023-03-20T00:54:21.652Z,65.61
2023-03-20T00:56:54.452Z,65.58
2023-03-20T00:59:24.085Z,65.53
2023-03-20T01:01:52.745Z,65.77
2023-03-20T01:04:22.853Z,66.09
2023-03-20T01:06:52.839Z,66.09
2023-03-20T01:09:21.325Z,66.19
2023-03-20T01:11:49.916Z,66.40
2023-03-20T01:14:19.123Z,66.34
2023-03-20T01:16:47.879Z,66.18
2023-03-20T01:19:17.872Z,66.35
2023-03-20T01:21:47.725Z,66.56
2023-03-20T01:24:16.220Z,66.48
2023-03-20T01:26:45.452Z,66.33
2023-03-20T01:29:19.109Z,66.40
2023-03-20T01:31:47.896Z,66.26
2023-03-20T01:34:17.989Z,66.63
2023-03-20T01:36:49.982Z,66.23
2023-03-20T01:39:19.310Z,66.55
2023-03-20T01:41:48.432Z,66.78
2023-03-20T01:44:20.704Z,66.99
2023-03-20T01:46:49.816Z,66.98
2023-03-20T01:49:31.901Z,66.75
2023-03-20T01:52:05.974Z,66.69
2023-03-20T01:54:35.986Z,66.79
2023-03-20T01:57:11.064Z,66.64
2023-03-20T01:59:43.288Z,66.64
2023-03-20T02:02:15.262Z,66.77
2023-03-20T02:04:47.848Z,66.78
2023-03-20T02:07:21.802Z,66.73
2023-03-20T02:10:02.731Z,66.83
2023-03-20T02:12:42.669Z,67.20
2023-03-20T02:15:15.848Z,67.31
2023-03-20T02:17:56.540Z,67.52
2023-03-20T02:20:32.954Z,67.22
2023-03-20T02:23:19.405Z,67.25
2023-03-20T02:26:02.454Z,67.56
2023-03-20T02:28:44.233Z,67.17
2023-03-20T02:31:27.883Z,67.27
2023-03-20T02:34:10.254Z,67.45
2023-03-20T02:36:49.513Z,67.61
2023-03-20T02:39:26.437Z,67.55
2023-03-20T02:41:58.742Z,67.88
2023-03-20T02:44:31.663Z,67.69
2023-03-20T02:47:05.415Z,67.73
2023-03-20T02:49:45.535Z,67.70
2023-03-20T02:52:18.572Z,68.17
2023-03-20T02:54:55.025Z,68.01
2023-03-20T02:57:28.630Z,68.17
2023-03-20T02:59:59.862Z,68.26
2023-03-20T03:02:33.154Z,68.12
2023-03-20T03:05:05.181Z,67.91
2023-03-20T03:07:34.835Z,68.46
2023-03-20T03:10:07.022Z,68.26
2023-03-20T03:12:37.998Z,68.48
2023-03-20T03:15:09.115Z,69.34
2023-03-20T03:17:39.735Z,68.96
2023-03-20T03:20:11.242Z,68.89
2023-03-20T03:22:39.724Z,69.07
2023-03-20T03:25:12.295Z,68.82
2023-03-20T03:27:42.906Z,68.65
2023-03-20T03:30:14.942Z,68.77
2023-03-20T03:32:47.487Z,68.47
2023-03-20T03:35:18.025Z,68.65
2023-03-20T03:37:51.623Z,68.89
2023-03-20T03:40:26.153Z,68.81
2023-03-20T03:42:57.123Z,69.01
2023-03-20T03:45:30.762Z,69.17
2023-03-20T03:48:03.724Z,69.05
2023-03-20T03:50:36.560Z,69.19
2023-03-20T03:53:08.495Z,68.72
2023-03-20T03:55:40.975Z,69.22
2023-03-20T03:58:15.147Z,69.16
2023-03-20T04:00:46.422Z,68.94
2023-03-20T04:03:15.242Z,69.29
2023-03-20T04:05:45.142Z,68.98
2023-03-20T04:08:13.589Z,69.49
2023-03-20T04:10:44.689Z,69.68
2023-03-20T04:13:13.195Z,69.12
2023-03-20T04:15:41.922Z,69.15
2023-03-20T04:18:16.973Z,69.12
2023-03-20T04:20:47.044Z,69.11
2023-03-20T04:23:15.411Z,68.97
2023-03-20T04:25:46.211Z,69.37
2023-03-20T04:28:16.696Z,68.95
2023-03-20T04:30:55.471Z,69.14
2023-03-20T04:33:35.050Z,69.19
2023-03-20T04:36:15.172Z,69.25
2023-03-20T04:38:43.756Z,69.56
2023-03-20T04:41:13.658Z,69.76
2023-03-20T04:43:42.602Z,69.25
2023-03-20T04:46:11.126Z,69.39
2023-03-20T04:48:39.710Z,69.72
2023-03-20T04:51:08.468Z,70.15
2023-03-20T04:53:48.062Z,69.98
2023-03-20T04:56:18.170Z,69.48
2023-03-20T04:58:48.110Z,69.89
2023-03-20T05:01:18.095Z,69.87
2023-03-20T05:03:46.834Z,70.13
2023-03-20T05:06:15.324Z,70.42
2023-03-20T05:08:45.786Z,70.11
2023-03-20T05:11:14.379Z,70.03
2023-03-20T05:13:50.175Z,70.80
2023-03-20T05:16:38.886Z,70.64
2023-03-20T05:19:27.613Z,70.81
2023-03-20T05:22:07.323Z,70.85
2023-03-20T05:24:46.000Z,71.28
2023-03-20T05:27:37.630Z,70.82
2023-03-20T05:30:20.002Z,70.97
2023-03-20T05:32:59.471Z,71.05
2023-03-20T05:35:28.124Z,70.49
2023-03-20T05:38:11.527Z,70.94
2023-03-20T05:40:51.345Z,70.75
2023-03-20T05:43:26.039Z,70.65
2023-03-20T05:46:04.289Z,70.61
2023-03-20T05:48:53.213Z,70.73
2023-03-20T05:51:44.700Z,70.98
2023-03-20T05:54:29.168Z,71.09
2023-03-20T05:57:08.101Z,70.94
2023-03-20T05:59:57.052Z,70.35
2023-03-20T06:02:38.190Z,70.18
2023-03-20T06:05:22.645Z,70.69
2023-03-20T06:07:53.607Z,70.37
2023-03-20T06:10:22.521Z,70.44
2023-03-20T06:12:52.700Z,69.93
2023-03-20T06:15:26.316Z,69.69
2023-03-20T06:18:02.851Z,69.84
2023-03-20T06:20:31.798Z,69.58
2023-03-20T06:23:04.461Z,69.46
2023-03-20T06:25:32.941Z,69.61
2023-03-20T06:28:01.450Z,69.75
2023-03-20T06:30:30.672Z,69.44
2023-03-20T06:32:59.956Z,68.13
2023-03-20T06:35:39.273Z,68.03
2023-03-20T06:38:08.589Z,68.12
2023-03-20T06:40:37.254Z,67.69
2023-03-20T06:43:06.071Z,67.39
2023-03-20T06:45:44.331Z,66.91
2023-03-20T06:48:22.413Z,66.59
2023-03-20T06:50:53.963Z,66.34
2023-03-20T06:53:26.214Z,66.37
2023-03-20T06:56:03.247Z,66.34
2023-03-20T06:58:31.653Z,65.97
2023-03-20T07:01:00.111Z,66.04
2023-03-20T07:03:28.785Z,65.79
2023-03-20T07:06:01.180Z,65.68
2023-03-20T07:08:29.797Z,65.84
2023-03-20T07:10:58.843Z,65.74
2023-03-20T07:13:28.429Z,66.04
2023-03-20T07:16:04.614Z,65.53
2023-03-20T07:18:42.058Z,64.84
2023-03-20T07:21:17.233Z,65.22
2023-03-20T07:23:45.801Z,65.12
2023-03-20T07:26:14.312Z,65.09
2023-03-20T07:28:42.782Z,64.04
2023-03-20T07:31:21.329Z,64.21
2023-03-20T07:33:53.834Z,63.01
2023-03-20T07:36:23.882Z,63.40
2023-03-20T07:38:52.337Z,61.74
2023-03-20T07:41:21.187Z,61.90
2023-03-20T07:44:00.860Z,61.19
2023-03-20T07:46:49.659Z,61.03
2023-03-20T07:49:19.079Z,60.60
2023-03-20T07:51:49.770Z,60.36
2023-03-20T07:54:18.604Z,60.08
2023-03-20T07:56:47.080Z,59.17
2023-03-20T07:59:16.054Z,58.59
2023-03-20T08:01:44.497Z,57.96
2023-03-20T08:04:13.238Z,57.85
2023-03-20T08:06:41.734Z,57.80
2023-03-20T08:09:11.774Z,57.42
2023-03-20T08:11:40.120Z,57.06
2023-03-20T08:14:08.678Z,56.94
2023-03-20T08:16:37.162Z,57.08
2023-03-20T08:19:06.420Z,56.32
2023-03-20T08:21:35.122Z,55.66
2023-03-20T08:24:03.432Z,55.04
2023-03-20T08:26:33.312Z,54.31
2023-03-20T08:29:02.063Z,53.63
2023-03-20T08:31:30.411Z,52.52
2023-03-20T08:33:58.850Z,52.30
2023-03-20T08:36:27.214Z,52.00
2023-03-20T08:38:56.209Z,51.08
2023-03-20T08:41:24.539Z,50.89
2023-03-20T08:43:54.446Z,50.86
2023-03-20T08:46:22.884Z,50.94
2023-03-20T08:48:51.347Z,50.87
2023-03-20T08:51:20.328Z,50.76
2023-03-20T08:53:48.793Z,49.28
2023-03-20T08:56:17.352Z,48.33
2023-03-20T08:58:46.138Z,48.39
2023-03-20T09:01:16.723Z,47.88
2023-03-20T09:03:45.601Z,47.99
2023-03-20T09:06:13.978Z,47.34
2023-03-20T09:08:42.475Z,47.29
2023-03-20T09:11:10.900Z,46.58
2023-03-20T09:13:39.513Z,46.68
2023-03-20T09:16:08.301Z,46.34
2023-03-20T09:18:38.421Z,46.38
2023-03-20T09:21:07.074Z,45.80
2023-03-20T09:23:35.526Z,46.16
2023-03-20T09:26:03.831Z,45.66
2023-03-20T09:28:32.683Z,45.83
2023-03-20T09:31:02.294Z,45.51
2023-03-20T09:33:30.692Z,45.97
2023-03-20T09:36:01.243Z,45.87
2023-03-20T09:38:29.609Z,45.53
2023-03-20T09:40:58.685Z,45.50
2023-03-20T09:43:35.255Z,45.09
2023-03-20T09:46:08.658Z,45.17
2023-03-20T09:48:40.217Z,44.64
2023-03-20T09:51:14.732Z,44.35
2023-03-20T09:53:45.295Z,44.10
2023-03-20T09:56:16.444Z,43.94
2023-03-20T09:58:49.767Z,43.71
2023-03-20T10:01:19.471Z,44.05
2023-03-20T10:03:52.037Z,43.95
2023-03-20T10:06:22.005Z,44.11
2023-03-20T10:08:50.365Z,44.04
2023-03-20T10:11:26.177Z,43.67
2023-03-20T10:14:02.199Z,43.33
2023-03-20T10:16:41.592Z,42.93
2023-03-20T10:19:14.615Z,42.52
2023-03-20T10:21:46.896Z,42.33
2023-03-20T10:24:21.389Z,41.70
2023-03-20T10:26:52.260Z,42.43
2023-03-20T10:29:27.066Z,41.95
2023-03-20T10:31:59.242Z,41.48
2023-03-20T10:34:36.653Z,40.91
2023-03-20T10:37:11.699Z,40.50
2023-03-20T10:39:50.613Z,41.38
2023-03-20T10:42:22.997Z,40.81
2023-03-20T10:44:53.430Z,40.33
2023-03-20T10:47:24.312Z,40.36
2023-03-20T10:49:55.970Z,40.39
2023-03-20T10:52:27.877Z,40.14
2023-03-20T10:54:58.415Z,40.54
2023-03-20T10:57:27.838Z,40.77
2023-03-20T10:59:57.654Z,40.87
2023-03-20T11:02:27.585Z,40.82
2023-03-20T11:04:56.060Z,41.32
2023-03-20T11:07:28.543Z,41.35
2023-03-20T11:10:08.167Z,40.82
2023-03-20T11:12:37.842Z,40.98
2023-03-20T11:15:15.993Z,40.83
2023-03-20T11:17:44.551Z,40.43
2023-03-20T11:20:15.627Z,40.63
2023-03-20T11:22:45.500Z,40.79
2023-03-20T11:25:24.179Z,41.01
2023-03-20T11:27:52.883Z,40.74
2023-03-20T11:30:21.212Z,40.96
2023-03-20T11:32:51.284Z,41.20
2023-03-20T11:35:24.293Z,41.27
2023-03-20T11:37:55.183Z,40.72
2023-03-20T11:40:25.644Z,41.29
2023-03-20T11:42:55.011Z,40.92
2023-03-20T11:45:23.688Z,41.02
2023-03-20T11:47:53.051Z,40.82
2023-03-20T11:50:31.479Z,41.42
2023-03-20T11:53:03.072Z,41.56
2023-03-20T11:55:33.010Z,42.02
2023-03-20T11:58:02.339Z,41.89
2023-03-20T12:00:36.769Z,42.19
2023-03-20T12:03:11.455Z,42.53
2023-03-20T12:05:41.121Z,42.85
2023-03-20T12:08:16.135Z,42.29
2023-03-20T12:10:47.645Z,42.27
2023-03-20T12:13:18.433Z,42.91
2023-03-20T12:15:48.860Z,42.69
2023-03-20T12:18:19.162Z,42.74
2023-03-20T12:20:52.744Z,42.75
2023-03-20T12:23:30.238Z,43.45
2023-03-20T12:26:01.257Z,43.13
2023-03-20T12:28:34.453Z,43.86
2023-03-20T12:31:07.515Z,43.39
2023-03-20T12:33:45.867Z,43.50
2023-03-20T12:36:15.665Z,43.52
2023-03-20T12:38:46.146Z,43.91
2023-03-20T12:41:16.967Z,43.66
2023-03-20T12:43:54.676Z,43.47
2023-03-20T12:46:27.001Z,43.22
2023-03-20T12:49:01.344Z,43.07
2023-03-20T12:51:36.905Z,42.69
2023-03-20T12:54:13.878Z,42.48
2023-03-20T12:56:54.828Z,42.44
2023-03-20T12:59:28.604Z,41.71
2023-03-20T13:02:00.066Z,41.78
2023-03-20T13:04:41.130Z,42.49
2023-03-20T13:07:16.483Z,41.83
2023-03-20T13:09:57.390Z,41.58
2023-03-20T13:12:34.272Z,41.26
2023-03-20T13:15:08.858Z,41.08
2023-03-20T13:17:39.851Z,40.99
2023-03-20T13:20:18.487Z,41.20
2023-03-20T13:22:54.027Z,41.37
2023-03-20T13:25:30.922Z,41.25
2023-03-20T13:28:06.977Z,42.26
2023-03-20T13:30:39.961Z,42.55
2023-03-20T13:33:15.743Z,42.64
2023-03-20T13:35:51.181Z,43.30
2023-03-20T13:38:21.885Z,43.26
2023-03-20T13:40:54.650Z,42.79
2023-03-20T13:43:29.043Z,42.78
2023-03-20T13:46:00.482Z,42.65
2023-03-20T13:48:31.290Z,42.46
2023-03-20T13:51:07.384Z,42.37
2023-03-20T13:53:41.525Z,42.34
2023-03-20T13:56:13.754Z,42.65
2023-03-20T13:58:56.471Z,42.80
2023-03-20T14:01:27.219Z,42.93
2023-03-20T14:03:57.068Z,43.32
2023-03-20T14:06:36.395Z,43.08
2023-03-20T14:09:26.082Z,43.50
2023-03-20T14:11:55.162Z,43.99
2023-03-20T14:14:28.883Z,44.01
2023-03-20T14:17:02.500Z,43.64
2023-03-20T14:19:31.741Z,43.09
2023-03-20T14:22:00.776Z,42.92
2023-03-20T14:24:30.337Z,42.37
2023-03-20T14:27:00.661Z,42.43
2023-03-20T14:29:38.292Z,42.01
2023-03-20T14:32:22.718Z,42.00
2023-03-20T14:34:52.194Z,41.94
2023-03-20T14:37:31.325Z,42.21
2023-03-20T14:40:04.718Z,42.37
2023-03-20T14:42:38.750Z,42.53
2023-03-20T14:45:24.830Z,42.54
2023-03-20T14:47:58.996Z,42.69
2023-03-20T14:50:30.942Z,42.52
2023-03-20T14:53:10.460Z,42.55
2023-03-20T14:55:49.815Z,43.05
2023-03-20T14:58:28.096Z,43.02
2023-03-20T15:00:56.617Z,43.61
2023-03-20T15:03:26.474Z,44.30
2023-03-20T15:05:58.166Z,44.46
2023-03-20T15:08:30.093Z,44.59
2023-03-20T15:11:01.037Z,44.65
2023-03-20T15:13:31.471Z,45.24
2023-03-20T15:16:05.040Z,46.06
2023-03-20T15:18:38.485Z,46.03
2023-03-20T15:21:13.188Z,45.98
2023-03-20T15:23:45.167Z,46.15
2023-03-20T15:26:15.710Z,46.30
2023-03-20T15:28:46.437Z,46.62
2023-03-20T15:31:19.126Z,46.65
2023-03-20T15:33:49.405Z,47.05
2023-03-20T15:36:19.383Z,47.20
2023-03-20T15:38:48.366Z,47.26
2023-03-20T15:41:26.684Z,47.51
2023-03-20T15:43:55.343Z,47.59
2023-03-20T15:46:27.553Z,47.87
2023-03-20T15:49:00.380Z,48.21
2023-03-20T15:51:29.565Z,48.59
2023-03-20T15:53:58.190Z,48.88
2023-03-20T15:56:27.995Z,49.20
2023-03-20T15:58:58.039Z,49.22
2023-03-20T16:01:27.172Z,49.49
2023-03-20T16:03:59.413Z,49.93
2023-03-20T16:06:29.544Z,50.25
2023-03-20T16:08:59.021Z,50.57
2023-03-20T16:11:36.616Z,50.87
2023-03-20T16:14:05.490Z,50.91
2023-03-20T16:16:37.851Z,50.70
2023-03-20T16:19:06.979Z,50.61
2023-03-20T16:21:38.488Z,50.48
2023-03-20T16:24:09.136Z,50.66
2023-03-20T16:26:38.990Z,50.41
2023-03-20T16:29:07.866Z,50.42
2023-03-20T16:31:37.519Z,50.64
2023-03-20T16:34:07.459Z,50.40
2023-03-20T16:36:39.074Z,50.74
2023-03-20T16:39:09.030Z,50.68
2023-03-20T16:41:38.604Z,50.58
2023-03-20T16:44:09.614Z,50.43
2023-03-20T16:46:38.234Z,50.58
2023-03-20T16:49:38.090Z,50.71
2023-03-20T16:52:12.393Z,50.88
2023-03-20T16:54:41.084Z,51.51
2023-03-20T16:57:11.083Z,51.54
2023-03-20T16:59:40.604Z,51.30
2023-03-20T17:02:14.277Z,51.51
2023-03-20T17:04:42.894Z,51.64
2023-03-20T17:07:16.271Z,52.18
2023-03-20T17:09:54.910Z,52.18
2023-03-20T17:12:25.859Z,52.06
2023-03-20T17:14:54.521Z,52.47
2023-03-20T17:17:25.358Z,52.43
2023-03-20T17:19:54.192Z,53.04
2023-03-20T17:22:25.629Z,53.34
2023-03-20T17:24:54.322Z,53.65
2023-03-20T17:27:22.755Z,54.06
2023-03-20T17:29:51.252Z,54.23
2023-03-20T17:32:21.402Z,54.48
2023-03-20T17:34:49.854Z,54.03
2023-03-20T17:37:19.974Z,54.00
2023-03-20T17:39:49.901Z,54.02
2023-03-20T17:42:19.879Z,54.11
2023-03-20T17:44:48.586Z,54.36
2023-03-20T17:47:17.879Z,54.52
2023-03-20T17:49:46.664Z,54.56
2023-03-20T17:52:16.509Z,54.48
2023-03-20T17:54:45.008Z,54.78
2023-03-20T17:57:19.945Z,55.23
2023-03-20T17:59:50.175Z,55.02
2023-03-20T18:02:19.551Z,55.06
2023-03-20T18:04:48.401Z,55.53
2023-03-20T18:07:17.789Z,55.43
2023-03-20T18:09:47.092Z,55.46
2023-03-20T18:12:18.550Z,55.51
2023-03-20T18:14:47.341Z,55.78
2023-03-20T18:17:16.780Z,56.28
2023-03-20T18:19:45.570Z,56.00
2023-03-20T18:22:13.950Z,55.99
2023-03-20T18:24:45.461Z,56.58
2023-03-20T18:27:14.626Z,56.35
2023-03-20T18:29:45.655Z,56.67
2023-03-20T18:32:14.141Z,57.25
2023-03-20T18:34:42.688Z,57.85
2023-03-20T18:37:14.144Z,58.29
2023-03-20T18:39:42.658Z,58.42
2023-03-20T18:42:10.982Z,58.32
2023-03-20T18:44:39.416Z,58.22
2023-03-20T18:47:11.039Z,58.39
2023-03-20T18:49:39.534Z,58.24
2023-03-20T18:52:07.919Z,58.50
2023-03-20T18:54:36.521Z,58.63
2023-03-20T18:57:05.033Z,58.54
2023-03-20T18:59:33.510Z,58.91
2023-03-20T19:02:02.165Z,58.97
2023-03-20T19:04:32.914Z,59.23
2023-03-20T19:07:01.306Z,59.77
2023-03-20T19:09:29.688Z,59.97
2023-03-20T19:11:58.086Z,60.53
2023-03-20T19:14:27.247Z,60.65
2023-03-20T19:16:56.324Z,61.39
2023-03-20T19:19:24.746Z,61.23
2023-03-20T19:21:54.731Z,61.58
2023-03-20T19:24:23.504Z,61.76
2023-03-20T19:26:57.341Z,62.06
2023-03-20T19:29:26.096Z,62.10
2023-03-20T19:31:54.552Z,62.65
2023-03-20T19:34:57.765Z,62.72
2023-03-20T19:37:13.567Z,62.95
2023-03-20T19:39:42.085Z,63.00
2023-03-20T19:42:40.989Z,63.05
2023-03-20T19:44:59.134Z,63.09
2023-03-20T19:47:27.540Z,63.03
2023-03-20T19:49:55.994Z,63.41
2023-03-20T19:52:30.631Z,63.58
2023-03-20T19:55:03.185Z,63.98
2023-03-20T19:57:32.242Z,63.85
2023-03-20T20:02:49.759Z,64.37
2023-03-20T20:05:22.567Z,64.45
2023-03-20T20:08:24.205Z,64.58
2023-03-20T20:10:42.076Z,65.00
2023-03-20T20:13:15.744Z,65.20
2023-03-20T20:15:44.784Z,65.42
2023-03-20T20:18:13.420Z,65.58
2023-03-20T20:21:27.322Z,65.69
2023-03-20T20:23:32.488Z,65.55
2023-03-20T20:26:01.115Z,65.76
2023-03-20T20:28:31.354Z,66.66
2023-03-20T20:31:00.076Z,66.37
2023-03-20T20:33:29.123Z,66.79
2023-03-20T20:36:36.757Z,66.84
2023-03-20T20:38:51.609Z,67.06
2023-03-20T20:41:20.925Z,67.34
2023-03-20T20:44:14.743Z,67.41
2023-03-20T20:46:37.908Z,67.53
2023-03-20T20:49:18.462Z,67.74
2023-03-20T20:51:48.199Z,67.50
2023-03-20T20:54:18.157Z,67.54
2023-03-20T20:56:46.586Z,67.61
2023-03-20T20:59:14.937Z,67.56
2023-03-20T21:01:43.746Z,67.58
2023-03-20T21:04:12.633Z,67.76
2023-03-20T21:07:08.191Z,68.07
2023-03-20T21:09:31.554Z,68.15
2023-03-20T21:12:01.030Z,68.51
2023-03-20T21:14:29.612Z,68.17
2023-03-20T21:17:01.461Z,68.53
2023-03-20T21:19:30.565Z,68.73
2023-03-20T21:21:58.964Z,68.71
2023-03-20T21:24:33.050Z,68.78
2023-03-20T21:27:05.294Z,69.49
2023-03-20T21:29:33.783Z,69.30
2023-03-20T21:32:02.910Z,69.17
2023-03-20T21:34:31.589Z,69.48
2023-03-20T21:37:29.521Z,69.54
2023-03-20T21:39:51.574Z,69.33
2023-03-20T21:42:21.587Z,69.30
2023-03-20T21:56:45.684Z,69.72
2023-03-20T22:02:10.426Z,69.52
2023-03-20T22:05:18.940Z,69.69
2023-03-20T22:08:09.678Z,70.24
2023-03-20T22:16:43.246Z,70.85
2023-03-20T22:27:46.551Z,69.95
2023-03-20T22:33:36.049Z,69.82
2023-03-20T22:39:05.213Z,70.18
2023-03-20T22:46:49.539Z,69.43
2023-03-20T22:49:19.415Z,70.00
2023-03-20T22:52:08.315Z,70.15
2023-03-20T22:54:36.582Z,70.26
2023-03-20T22:57:05.019Z,70.16
2023-03-20T22:59:33.749Z,71.00
2023-03-20T23:02:02.161Z,70.34
2023-03-20T23:04:43.362Z,70.92
2023-03-20T23:07:22.738Z,70.31
2023-03-20T23:09:51.429Z,70.47
2023-03-20T23:12:19.848Z,70.58
2023-03-20T23:14:48.267Z,70.90
2023-03-20T23:17:16.819Z,71.02
2023-03-20T23:19:50.515Z,70.98
2023-03-20T23:22:22.660Z,71.42
2023-03-20T23:24:52.133Z,70.77
2023-03-20T23:27:22.556Z,71.20
2023-03-20T23:29:51.060Z,71.63
2023-03-20T23:32:19.608Z,71.20
2023-03-20T23:34:49.578Z,71.44
2023-03-20T23:37:18.457Z,71.92
2023-03-20T23:39:46.977Z,71.26
2023-03-20T23:42:29.659Z,71.63
2023-03-20T23:45:07.116Z,72.09
2023-03-20T23:47:44.773Z,72.06
2023-03-20T23:50:26.370Z,72.55
2023-03-20T23:53:09.513Z,72.21
2023-03-20T23:55:47.011Z,72.65
2023-03-20T23:58:15.786Z,72.54
